createdAt,value
2018-09-13T00:00:00.504Z,16.00
2018-09-13T00:02:28.248Z,17.13
2018-09-13T00:04:56.015Z,16.77
2018-09-13T00:07:23.752Z,16.03
2018-09-13T00:09:51.585Z,14.87
2018-09-13T00:12:19.357Z,14.90
2018-09-13T00:14:53.727Z,13.57
2018-09-13T00:17:21.491Z,13.13
2018-09-13T00:19:49.349Z,13.90
2018-09-13T00:22:17.207Z,12.73
2018-09-13T00:24:44.915Z,13.00
2018-09-13T00:27:12.686Z,12.40
2018-09-13T00:29:40.593Z,12.13
2018-09-13T00:32:08.333Z,12.23
2018-09-13T00:34:36.125Z,12.63
2018-09-13T00:37:03.960Z,11.23
2018-09-13T00:39:32.876Z,11.57
2018-09-13T00:42:00.582Z,11.27
2018-09-13T00:44:28.364Z,9.80
2018-09-13T00:46:56.100Z,9.50
2018-09-13T00:49:23.890Z,9.07
2018-09-13T00:51:51.597Z,8.33
2018-09-13T00:54:19.319Z,8.30
2018-09-13T00:56:47.044Z,8.33
2018-09-13T00:59:15.980Z,8.53
2018-09-13T01:01:43.720Z,7.77
2018-09-13T01:04:11.431Z,7.93
2018-09-13T01:06:39.255Z,7.83
2018-09-13T01:09:09.261Z,9.00
2018-09-13T01:11:37.082Z,8.27
2018-09-13T01:14:04.897Z,7.77
2018-09-13T01:16:32.698Z,7.73
2018-09-13T01:19:00.656Z,7.80
2018-09-13T01:21:28.408Z,7.80
2018-09-13T01:23:56.113Z,7.53
2018-09-13T01:26:23.885Z,7.60
2018-09-13T01:28:51.819Z,7.50
2018-09-13T01:31:19.551Z,7.70
2018-09-13T01:33:47.385Z,7.73
2018-09-13T01:36:15.078Z,7.90
2018-09-13T01:38:42.913Z,8.07
2018-09-13T01:41:10.705Z,8.10
2018-09-13T01:43:38.455Z,7.50
2018-09-13T01:46:06.294Z,7.37
2018-09-13T01:48:36.209Z,6.93
2018-09-13T01:51:03.956Z,7.47
2018-09-13T01:53:31.677Z,7.37
2018-09-13T01:55:59.395Z,7.23
2018-09-13T01:58:27.239Z,8.17
2018-09-13T02:00:55.002Z,7.77
2018-09-13T02:03:22.967Z,6.73
2018-09-13T02:05:50.705Z,7.77
2018-09-13T02:08:18.472Z,7.13
2018-09-13T02:10:46.197Z,7.60
2018-09-13T02:13:13.937Z,7.60
2018-09-13T02:15:41.673Z,7.80
2018-09-13T02:18:09.672Z,8.10
2018-09-13T02:20:37.458Z,7.43
2018-09-13T02:23:05.213Z,7.93
2018-09-13T02:25:32.972Z,8.20
2018-09-13T02:28:01.824Z,8.10
2018-09-13T02:30:29.569Z,8.27
2018-09-13T02:32:57.283Z,8.00
2018-09-13T02:35:25.053Z,8.57
2018-09-13T02:37:53.963Z,7.83
2018-09-13T02:40:21.737Z,8.40
2018-09-13T02:42:49.571Z,8.20
2018-09-13T02:45:17.407Z,8.60
2018-09-13T02:47:49.143Z,8.07
2018-09-13T02:50:16.915Z,8.93
2018-09-13T02:52:44.744Z,8.50
2018-09-13T02:55:12.445Z,8.37
2018-09-13T02:57:40.400Z,8.07
2018-09-13T03:00:08.908Z,7.97
2018-09-13T03:02:36.676Z,8.87
2018-09-13T03:05:04.593Z,7.93
2018-09-13T03:07:32.331Z,8.13
2018-09-13T03:10:00.108Z,8.10
2018-09-13T03:12:27.898Z,8.67
2018-09-13T03:14:55.615Z,8.37
2018-09-13T03:17:23.355Z,8.17
2018-09-13T03:19:51.147Z,8.87
2018-09-13T03:22:18.929Z,8.30
2018-09-13T03:24:46.630Z,8.57
2018-09-13T03:27:14.357Z,8.53
2018-09-13T03:29:42.172Z,8.53
2018-09-13T03:32:09.909Z,8.27
2018-09-13T03:34:37.714Z,8.63
2018-09-13T03:37:05.480Z,7.90
2018-09-13T03:39:33.275Z,8.20
2018-09-13T03:42:01.052Z,7.77
2018-09-13T03:44:28.828Z,7.77
2018-09-13T03:46:56.533Z,8.00
2018-09-13T03:49:24.251Z,7.53
2018-09-13T03:51:52.421Z,7.90
2018-09-13T03:54:20.198Z,8.27
2018-09-13T03:56:47.925Z,8.07
2018-09-13T03:59:15.720Z,7.60
2018-09-13T04:01:43.455Z,8.30
2018-09-13T04:04:11.256Z,7.73
2018-09-13T04:06:39.007Z,8.40
2018-09-13T04:09:09.173Z,8.03
2018-09-13T04:11:37.005Z,8.47
2018-09-13T04:14:04.820Z,7.53
2018-09-13T04:16:32.561Z,8.20
2018-09-13T04:19:00.300Z,8.03
2018-09-13T04:21:28.361Z,7.00
2018-09-13T04:23:56.263Z,7.77
2018-09-13T04:26:24.161Z,7.63
2018-09-13T04:28:52.485Z,7.17
2018-09-13T04:31:20.211Z,7.63
2018-09-13T04:33:47.940Z,8.03
2018-09-13T04:36:15.707Z,7.60
2018-09-13T04:38:43.467Z,7.57
2018-09-13T04:41:11.213Z,7.00
2018-09-13T04:43:39.006Z,7.20
2018-09-13T04:46:06.892Z,7.20
2018-09-13T04:48:34.618Z,7.40
2018-09-13T04:51:02.709Z,7.17
2018-09-13T04:53:30.837Z,7.60
2018-09-13T04:55:58.644Z,7.43
2018-09-13T04:58:26.455Z,7.63
2018-09-13T05:00:54.249Z,7.30
2018-09-13T05:03:22.009Z,7.13
2018-09-13T05:05:49.775Z,7.07
2018-09-13T05:08:17.514Z,6.93
2018-09-13T05:10:45.355Z,7.47
2018-09-13T05:13:13.205Z,6.50
2018-09-13T05:15:40.955Z,7.23
2018-09-13T05:18:08.752Z,7.53
2018-09-13T05:20:36.557Z,7.60
2018-09-13T05:23:04.767Z,7.07
2018-09-13T05:25:32.625Z,7.63
2018-09-13T05:28:00.424Z,6.97
2018-09-13T05:30:28.240Z,7.23
2018-09-13T05:32:56.355Z,7.30
2018-09-13T05:35:24.097Z,7.03
2018-09-13T05:37:51.890Z,7.07
2018-09-13T05:40:19.701Z,6.67
2018-09-13T05:42:47.605Z,6.73
2018-09-13T05:45:15.727Z,6.53
2018-09-13T05:47:43.695Z,6.90
2018-09-13T05:50:11.462Z,6.63
2018-09-13T05:52:39.265Z,6.67
2018-09-13T05:55:07.307Z,5.90
2018-09-13T05:57:35.137Z,6.03
2018-09-13T06:00:03.009Z,6.40
2018-09-13T06:02:30.782Z,6.87
2018-09-13T06:04:58.507Z,6.03
2018-09-13T06:07:26.299Z,5.93
2018-09-13T06:09:54.176Z,6.00
2018-09-13T06:12:21.905Z,6.53
2018-09-13T06:14:49.675Z,5.50
2018-09-13T06:17:17.462Z,5.17
2018-09-13T06:19:45.268Z,5.80
2018-09-13T06:22:12.961Z,5.67
2018-09-13T06:24:40.725Z,6.03
2018-09-13T06:27:08.507Z,5.17
2018-09-13T06:29:36.634Z,5.23
2018-09-13T06:32:04.353Z,5.83
2018-09-13T06:34:32.103Z,5.80
2018-09-13T06:36:59.875Z,5.83
2018-09-13T06:39:27.789Z,5.73
2018-09-13T06:41:55.577Z,5.50
2018-09-13T06:44:23.366Z,5.77
2018-09-13T06:46:51.220Z,5.87
2018-09-13T06:49:19.117Z,6.00
2018-09-13T06:51:46.954Z,5.87
2018-09-13T06:54:14.773Z,6.03
2018-09-13T06:56:42.749Z,6.20
2018-09-13T06:59:10.497Z,6.00
2018-09-13T07:01:38.306Z,5.53
2018-09-13T07:04:06.120Z,6.37
2018-09-13T07:06:33.875Z,6.40
2018-09-13T07:09:01.686Z,5.90
2018-09-13T07:11:29.433Z,6.30
2018-09-13T07:13:57.151Z,6.70
2018-09-13T07:16:24.871Z,6.00
2018-09-13T07:18:52.576Z,5.90
2018-09-13T07:21:20.330Z,6.40
2018-09-13T07:23:48.064Z,5.90
2018-09-13T07:26:15.802Z,5.83
2018-09-13T07:28:43.538Z,6.33
2018-09-13T07:31:11.295Z,5.70
2018-09-13T07:33:39.081Z,6.10
2018-09-13T07:36:06.839Z,5.57
2018-09-13T07:38:34.643Z,5.63
2018-09-13T07:41:02.385Z,5.30
2018-09-13T07:43:30.105Z,5.97
2018-09-13T07:45:57.871Z,5.63
2018-09-13T07:48:25.630Z,5.33
2018-09-13T07:50:53.356Z,7.17
2018-09-13T07:53:21.196Z,6.90
2018-09-13T07:55:49.195Z,5.33
2018-09-13T07:58:17.014Z,5.43
2018-09-13T08:00:44.751Z,5.87
2018-09-13T08:03:12.482Z,5.30
2018-09-13T08:05:40.201Z,5.83
2018-09-13T08:08:07.946Z,5.73
2018-09-13T08:10:35.759Z,5.00
2018-09-13T08:13:03.485Z,5.07
2018-09-13T08:15:31.314Z,4.83
2018-09-13T08:17:59.132Z,5.30
2018-09-13T08:20:26.864Z,5.27
2018-09-13T08:22:54.656Z,4.77
2018-09-13T08:25:22.373Z,6.00
2018-09-13T08:27:50.104Z,5.53
2018-09-13T08:30:17.843Z,4.70
2018-09-13T08:32:45.584Z,4.60
2018-09-13T08:35:13.376Z,4.57
2018-09-13T08:37:41.093Z,4.10
2018-09-13T08:40:08.857Z,4.40
2018-09-13T08:42:36.596Z,4.23
2018-09-13T08:45:04.367Z,3.80
2018-09-13T08:47:32.100Z,3.87
2018-09-13T08:49:59.967Z,3.70
2018-09-13T08:52:27.826Z,3.47
2018-09-13T08:54:55.535Z,3.47
2018-09-13T08:57:23.368Z,4.33
2018-09-13T08:59:51.226Z,3.43
2018-09-13T09:02:19.122Z,3.53
2018-09-13T09:04:46.844Z,3.47
2018-09-13T09:07:14.619Z,3.20
2018-09-13T09:09:42.343Z,3.50
2018-09-13T09:12:10.084Z,3.43
2018-09-13T09:14:37.803Z,3.30
2018-09-13T09:17:05.903Z,3.63
2018-09-13T09:19:33.660Z,4.13
2018-09-13T09:22:01.373Z,3.40
2018-09-13T09:24:29.130Z,3.30
2018-09-13T09:26:56.885Z,3.20
2018-09-13T09:29:24.781Z,3.43
2018-09-13T09:31:52.441Z,4.00
2018-09-13T09:34:20.227Z,4.20
2018-09-13T09:36:47.989Z,3.43
2018-09-13T09:39:15.754Z,3.47
2018-09-13T09:41:43.701Z,3.60
2018-09-13T09:44:11.526Z,3.00
2018-09-13T09:46:42.884Z,3.90
2018-09-13T09:49:10.680Z,3.43
2018-09-13T09:51:38.436Z,3.10
2018-09-13T09:54:06.176Z,3.73
2018-09-13T09:56:33.923Z,3.57
2018-09-13T09:59:01.661Z,3.70
2018-09-13T10:01:35.521Z,3.60
2018-09-13T10:04:03.305Z,3.13
2018-09-13T10:06:31.097Z,3.30
2018-09-13T10:08:58.952Z,3.17
2018-09-13T10:11:26.731Z,3.60
2018-09-13T10:13:54.470Z,3.60
2018-09-13T10:16:27.730Z,2.73
2018-09-13T10:19:00.954Z,2.60
2018-09-13T10:21:34.255Z,3.07
2018-09-13T10:24:07.781Z,2.70
2018-09-13T10:26:41.172Z,2.50
2018-09-13T10:29:14.496Z,2.60
2018-09-13T10:31:47.670Z,2.50
2018-09-13T10:34:21.223Z,2.77
2018-09-13T10:36:54.563Z,2.90
2018-09-13T10:39:27.955Z,2.80
2018-09-13T10:42:01.397Z,2.90
2018-09-13T10:45:32.154Z,3.17
2018-09-13T10:48:05.547Z,2.57
2018-09-13T10:50:38.517Z,2.07
2018-09-13T10:55:16.831Z,2.30
2018-09-13T10:57:44.807Z,2.53
2018-09-13T11:00:13.918Z,2.67
2018-09-13T11:02:41.724Z,3.03
2018-09-13T11:05:09.552Z,2.73
2018-09-13T11:07:37.304Z,2.70
2018-09-13T11:10:06.261Z,3.90
2018-09-13T11:12:43.485Z,3.50
2018-09-13T11:15:16.859Z,3.40
2018-09-13T11:17:44.674Z,3.43
2018-09-13T11:20:12.465Z,3.80
2018-09-13T11:22:40.265Z,4.33
2018-09-13T11:25:08.059Z,4.80
2018-09-13T11:27:35.874Z,5.97
2018-09-13T11:30:03.889Z,6.10
2018-09-13T11:32:31.729Z,6.80
2018-09-13T11:34:59.614Z,6.43
2018-09-13T11:37:27.399Z,6.17
2018-09-13T11:39:55.313Z,6.77
2018-09-13T11:42:23.021Z,6.60
2018-09-13T11:44:50.838Z,7.57
2018-09-13T11:47:18.575Z,6.40
2018-09-13T11:49:46.452Z,6.97
2018-09-13T11:52:14.335Z,6.73
2018-09-13T11:54:42.063Z,6.50
2018-09-13T11:57:09.851Z,6.77
2018-09-13T11:59:37.591Z,5.97
2018-09-13T12:02:05.515Z,5.37
2018-09-13T12:04:33.313Z,4.80
2018-09-13T12:07:01.039Z,5.07
2018-09-13T12:09:28.767Z,4.87
2018-09-13T12:11:56.509Z,4.43
2018-09-13T12:14:24.297Z,4.37
2018-09-13T12:16:52.053Z,4.63
2018-09-13T12:19:19.833Z,4.20
2018-09-13T12:21:47.570Z,4.17
2018-09-13T12:24:15.303Z,4.50
2018-09-13T12:26:43.008Z,5.13
2018-09-13T12:29:10.760Z,4.50
2018-09-13T12:31:38.581Z,4.07
2018-09-13T12:34:06.404Z,4.00
2018-09-13T12:36:34.163Z,3.00
2018-09-13T12:39:02.025Z,2.57
2018-09-13T12:41:29.790Z,2.80
2018-09-13T12:43:57.520Z,2.20
2018-09-13T12:46:25.279Z,1.90
2018-09-13T12:48:53.217Z,1.90
2018-09-13T12:51:21.139Z,1.87
2018-09-13T12:53:49.049Z,1.90
2018-09-13T12:56:17.070Z,1.60
2018-09-13T12:58:45.025Z,1.97
2018-09-13T13:01:12.793Z,1.80
2018-09-13T13:03:40.550Z,2.00
2018-09-13T13:06:08.363Z,1.60
2018-09-13T13:08:36.181Z,1.93
2018-09-13T13:11:04.068Z,1.70
2018-09-13T13:13:31.879Z,1.87
2018-09-13T13:15:59.618Z,1.80
2018-09-13T13:18:27.393Z,1.70
2018-09-13T13:20:55.214Z,1.57
2018-09-13T13:23:23.200Z,1.90
2018-09-13T13:25:51.224Z,2.30
2018-09-13T13:28:19.012Z,1.90
2018-09-13T13:30:46.877Z,1.73
2018-09-13T13:33:14.849Z,1.60
2018-09-13T13:35:42.865Z,2.03
2018-09-13T13:38:10.681Z,1.87
2018-09-13T13:40:38.567Z,1.70
2018-09-13T13:43:06.347Z,1.63
2018-09-13T13:45:34.242Z,2.00
2018-09-13T13:48:02.324Z,1.80
2018-09-13T13:50:30.249Z,1.50
2018-09-13T13:52:57.985Z,1.73
2018-09-13T13:55:26.081Z,1.70
2018-09-13T13:57:53.869Z,1.77
2018-09-13T14:00:21.949Z,1.60
2018-09-13T14:02:49.877Z,1.87
2018-09-13T14:05:17.958Z,1.50
2018-09-13T14:07:45.964Z,1.73
2018-09-13T14:10:14.030Z,1.20
2018-09-13T14:12:41.951Z,1.30
2018-09-13T14:15:09.891Z,1.50
2018-09-13T14:17:37.837Z,1.07
2018-09-13T14:20:05.882Z,1.50
2018-09-13T14:22:33.886Z,1.37
2018-09-13T14:25:01.975Z,1.40
2018-09-13T14:27:29.994Z,1.77
2018-09-13T14:29:58.086Z,1.90
2018-09-13T14:32:26.005Z,1.63
2018-09-13T14:34:54.038Z,1.60
2018-09-13T14:37:21.994Z,1.60
2018-09-13T14:39:50.079Z,1.43
2018-09-13T14:42:17.958Z,1.90
2018-09-13T14:44:45.858Z,1.57
2018-09-13T14:47:13.770Z,1.67
2018-09-13T14:49:41.651Z,1.60
2018-09-13T14:52:09.568Z,1.50
2018-09-13T14:54:37.496Z,1.63
2018-09-13T14:57:05.514Z,1.70
2018-09-13T14:59:33.517Z,1.30
2018-09-13T15:02:01.405Z,1.40
2018-09-13T15:04:29.575Z,1.63
2018-09-13T15:06:57.791Z,1.60
2018-09-13T15:09:25.825Z,1.70
2018-09-13T15:11:53.947Z,1.53
2018-09-13T15:14:22.022Z,1.60
2018-09-13T15:16:50.035Z,1.50
2018-09-13T15:19:18.061Z,1.70
2018-09-13T15:21:46.056Z,1.60
2018-09-13T15:24:14.114Z,1.23
2018-09-13T15:26:42.069Z,1.50
2018-09-13T15:29:10.241Z,1.50
2018-09-13T15:31:38.168Z,1.40
2018-09-13T15:34:06.325Z,1.57
2018-09-13T15:36:34.330Z,1.47
2018-09-13T15:39:02.402Z,1.80
2018-09-13T15:41:30.313Z,1.60
2018-09-13T15:43:58.400Z,1.80
2018-09-13T15:46:26.471Z,1.40
2018-09-13T15:48:54.567Z,1.70
2018-09-13T15:51:22.675Z,1.70
2018-09-13T15:53:50.679Z,1.77
2018-09-13T15:56:18.713Z,1.77
2018-09-13T15:58:46.992Z,1.60
2018-09-13T16:01:14.914Z,1.60
2018-09-13T16:03:42.817Z,1.40
2018-09-13T16:06:10.953Z,1.43
2018-09-13T16:08:39.034Z,1.80
2018-09-13T16:11:07.222Z,1.70
2018-09-13T16:13:35.275Z,1.60
2018-09-13T16:16:03.340Z,2.00
2018-09-13T16:18:31.525Z,1.60
2018-09-13T16:20:59.532Z,1.50
2018-09-13T16:23:27.627Z,1.60
2018-09-13T16:25:55.545Z,1.60
2018-09-13T16:28:23.545Z,1.70
2018-09-13T16:30:51.480Z,1.80
2018-09-13T16:33:19.921Z,2.00
2018-09-13T16:35:52.319Z,1.40
2018-09-13T16:38:29.062Z,1.60
2018-09-13T16:41:03.269Z,1.43
2018-09-13T16:43:43.229Z,1.90
2018-09-13T16:46:17.677Z,1.80
2018-09-13T16:48:45.736Z,1.63
2018-09-13T16:51:13.797Z,1.60
2018-09-13T16:53:42.037Z,1.40
2018-09-13T16:56:10.159Z,1.53
2018-09-13T16:58:38.309Z,1.60
2018-09-13T17:01:06.302Z,1.40
2018-09-13T17:03:34.175Z,1.43
2018-09-13T17:06:02.143Z,1.37
2018-09-13T17:08:30.218Z,1.43
2018-09-13T17:10:58.184Z,1.70
2018-09-13T17:13:26.078Z,1.47
2018-09-13T17:15:53.925Z,1.47
2018-09-13T17:18:21.760Z,1.17
2018-09-13T17:20:49.730Z,1.67
2018-09-13T17:23:17.652Z,1.73
2018-09-13T17:25:45.627Z,1.57
2018-09-13T17:28:13.569Z,1.30
2018-09-13T17:30:41.589Z,1.53
2018-09-13T17:33:09.637Z,1.70
2018-09-13T17:35:37.671Z,2.13
2018-09-13T17:38:05.714Z,1.70
2018-09-13T17:40:33.754Z,1.80
2018-09-13T17:43:01.772Z,1.90
2018-09-13T17:45:29.632Z,1.97
2018-09-13T17:47:57.559Z,1.83
2018-09-13T17:50:25.886Z,1.80
2018-09-13T17:52:54.098Z,1.70
2018-09-13T17:55:22.248Z,1.60
2018-09-13T17:57:50.581Z,1.97
2018-09-13T18:00:18.680Z,1.83
2018-09-13T18:02:47.055Z,1.60
2018-09-13T18:05:15.235Z,1.97
2018-09-13T18:07:43.439Z,1.60
2018-09-13T18:10:11.491Z,1.73
2018-09-13T18:12:39.770Z,2.03
2018-09-13T18:15:08.130Z,1.80
2018-09-13T18:17:36.304Z,1.50
2018-09-13T18:20:04.268Z,1.50
2018-09-13T18:22:32.265Z,1.70
2018-09-13T18:25:00.336Z,2.30
2018-09-13T18:27:28.369Z,1.63
2018-09-13T18:29:56.497Z,1.87
2018-09-13T18:32:24.616Z,2.00
2018-09-13T18:34:52.890Z,2.00
2018-09-13T18:37:21.025Z,1.80
2018-09-13T18:39:49.206Z,1.90
2018-09-13T18:42:17.397Z,2.10
2018-09-13T18:44:45.567Z,1.57
2018-09-13T18:47:14.152Z,2.30
2018-09-13T18:49:41.947Z,2.00
2018-09-13T18:52:09.762Z,2.00
2018-09-13T18:54:37.932Z,1.90
2018-09-13T18:57:06.167Z,1.90
2018-09-13T18:59:34.471Z,2.43
2018-09-13T19:02:02.541Z,2.67
2018-09-13T19:04:30.782Z,1.90
2018-09-13T19:06:58.976Z,1.80
2018-09-13T19:09:27.251Z,1.90
2018-09-13T19:11:55.296Z,2.20
2018-09-13T19:14:23.394Z,2.03
2018-09-13T19:16:51.533Z,2.17
2018-09-13T19:19:19.634Z,2.10
2018-09-13T19:21:48.665Z,2.20
2018-09-13T19:24:16.879Z,2.20
2018-09-13T19:26:45.315Z,1.97
2018-09-13T19:29:13.450Z,2.13
2018-09-13T19:31:41.643Z,1.93
2018-09-13T19:34:09.909Z,2.00
2018-09-13T19:36:38.123Z,1.80
2018-09-13T19:39:11.673Z,2.10
2018-09-13T19:41:40.193Z,1.90
2018-09-13T19:44:08.329Z,2.17
2018-09-13T19:46:36.497Z,2.60
2018-09-13T19:49:04.742Z,2.53
2018-09-13T19:51:32.698Z,2.27
2018-09-13T19:54:00.674Z,2.50
2018-09-13T19:56:28.737Z,2.23
2018-09-13T19:58:56.773Z,2.70
2018-09-13T20:01:24.813Z,2.10
2018-09-13T20:03:52.840Z,2.30
2018-09-13T20:06:20.984Z,2.37
2018-09-13T20:09:52.043Z,2.37
2018-09-13T20:12:20.144Z,2.50
2018-09-13T20:14:48.196Z,2.30
2018-09-13T20:17:16.245Z,2.40
2018-09-13T20:19:44.361Z,2.90
2018-09-13T20:22:13.056Z,2.20
2018-09-13T20:24:41.206Z,2.03
2018-09-13T20:27:09.334Z,2.50
2018-09-13T20:29:37.403Z,2.20
2018-09-13T20:32:05.523Z,2.03
2018-09-13T20:34:33.678Z,2.97
2018-09-13T20:37:01.592Z,2.73
2018-09-13T20:39:29.609Z,2.47
2018-09-13T20:41:57.666Z,2.83
2018-09-13T20:44:25.631Z,2.30
2018-09-13T20:46:53.635Z,2.30
2018-09-13T20:49:21.506Z,2.17
2018-09-13T20:51:49.471Z,2.27
2018-09-13T20:54:17.747Z,2.33
2018-09-13T20:56:45.643Z,2.50
2018-09-13T20:59:13.509Z,2.60
2018-09-13T21:01:41.599Z,2.40
2018-09-13T21:04:09.491Z,2.30
2018-09-13T21:06:37.411Z,2.80
2018-09-13T21:09:07.607Z,2.33
2018-09-13T21:11:35.543Z,2.43
2018-09-13T21:14:03.503Z,2.70
2018-09-13T21:16:31.443Z,2.23
2018-09-13T21:18:59.355Z,2.40
2018-09-13T21:21:27.743Z,2.23
2018-09-13T21:23:56.419Z,2.33
2018-09-13T21:26:24.337Z,2.70
2018-09-13T21:28:54.357Z,2.67
2018-09-13T21:31:22.219Z,2.37
2018-09-13T21:33:50.623Z,2.70
2018-09-13T21:36:18.516Z,2.73
2018-09-13T21:38:46.713Z,2.40
2018-09-13T21:41:14.674Z,2.17
2018-09-13T21:43:42.496Z,2.37
2018-09-13T21:46:10.393Z,2.93
2018-09-13T21:48:38.188Z,2.30
2018-09-13T21:51:06.213Z,3.00
2018-09-13T21:53:34.060Z,2.70
2018-09-13T21:56:01.899Z,3.00
2018-09-13T21:58:29.712Z,2.60
2018-09-13T22:00:57.633Z,3.13
2018-09-13T22:03:25.418Z,2.90
2018-09-13T22:05:53.257Z,2.90
2018-09-13T22:08:21.139Z,2.87
2018-09-13T22:10:49.717Z,2.87
2018-09-13T22:13:17.579Z,2.80
2018-09-13T22:15:45.389Z,2.83
2018-09-13T22:18:13.315Z,3.30
2018-09-13T22:20:41.243Z,3.00
2018-09-13T22:23:09.185Z,3.00
2018-09-13T22:25:37.093Z,3.30
2018-09-13T22:28:05.085Z,3.13
2018-09-13T22:30:32.991Z,3.30
2018-09-13T22:33:00.832Z,3.17
2018-09-13T22:35:28.708Z,3.10
2018-09-13T22:37:57.178Z,3.40
2018-09-13T22:40:25.071Z,3.30
2018-09-13T22:42:53.045Z,3.60
2018-09-13T22:45:20.950Z,3.03
2018-09-13T22:47:48.874Z,3.20
2018-09-13T22:50:16.722Z,3.23
2018-09-13T22:52:44.591Z,3.30
2018-09-13T22:55:12.471Z,2.93
2018-09-13T22:57:41.316Z,3.37
2018-09-13T23:00:09.320Z,3.00
2018-09-13T23:02:42.827Z,2.80
2018-09-13T23:05:10.799Z,3.13
2018-09-13T23:07:38.712Z,3.20
2018-09-13T23:10:06.677Z,3.30
2018-09-13T23:12:34.536Z,3.00
2018-09-13T23:15:02.438Z,2.73
2018-09-13T23:17:30.407Z,3.20
2018-09-13T23:19:58.271Z,3.10
2018-09-13T23:22:26.060Z,2.97
2018-09-13T23:24:53.932Z,3.47
2018-09-13T23:27:21.788Z,3.00
2018-09-13T23:29:49.608Z,3.33
2018-09-13T23:32:17.456Z,2.93
2018-09-13T23:34:45.303Z,3.50
2018-09-13T23:37:13.148Z,3.70
2018-09-13T23:39:41.309Z,3.10
2018-09-13T23:42:08.832Z,2.93
2018-09-13T23:44:36.686Z,3.43
2018-09-13T23:47:04.576Z,2.97
2018-09-13T23:49:32.510Z,2.87
2018-09-13T23:52:00.302Z,3.27
2018-09-13T23:54:28.200Z,2.67
2018-09-13T23:56:56.499Z,3.50
2018-09-13T23:59:24.365Z,3.47
